sensor_id;sensor_type;location;lat;lon;timestamp;pressure;altitude;pressure_sealevel;temperature;humidity
60087;BME280;45960;53.630;55.972;2023-01-28T00:00:22;101013.16;;;-10.97;68.94
60087;BME280;45960;53.630;55.972;2023-01-28T00:01:23;101016.50;;;-10.99;68.89
60087;BME280;45960;53.630;55.972;2023-01-28T00:02:24;101015.66;;;-10.98;68.97
60087;BME280;45960;53.630;55.972;2023-01-28T00:03:25;101010.50;;;-10.98;68.84
60087;BME280;45960;53.630;55.972;2023-01-28T00:04:26;101020.81;;;-10.98;69.00
60087;BME280;45960;53.630;55.972;2023-01-28T00:05:27;101019.19;;;-10.96;68.93
60087;BME280;45960;53.630;55.972;2023-01-28T00:06:29;101020.78;;;-11.00;68.98
60087;BME280;45960;53.630;55.972;2023-01-28T00:07:30;101022.50;;;-11.00;69.05
60087;BME280;45960;53.630;55.972;2023-01-28T00:08:32;101018.16;;;-11.01;69.21
60087;BME280;45960;53.630;55.972;2023-01-28T00:09:33;101017.34;;;-11.00;68.94
60087;BME280;45960;53.630;55.972;2023-01-28T00:10:36;101005.34;;;-10.98;68.86
60087;BME280;45960;53.630;55.972;2023-01-28T00:11:40;101014.03;;;-10.96;68.96
60087;BME280;45960;53.630;55.972;2023-01-28T00:12:42;101010.59;;;-10.95;68.89
60087;BME280;45960;53.630;55.972;2023-01-28T00:13:43;101010.50;;;-10.98;68.87
60087;BME280;45960;53.630;55.972;2023-01-28T00:14:44;101013.94;;;-10.99;68.93
60087;BME280;45960;53.630;55.972;2023-01-28T00:15:56;101013.81;;;-11.02;68.85
60087;BME280;45960;53.630;55.972;2023-01-28T00:16:57;101007.78;;;-11.03;68.80
60087;BME280;45960;53.630;55.972;2023-01-28T00:17:59;101003.41;;;-11.06;69.04
60087;BME280;45960;53.630;55.972;2023-01-28T00:19:00;101011.94;;;-11.07;69.02
60087;BME280;45960;53.630;55.972;2023-01-28T00:20:02;101016.19;;;-11.09;69.10
60087;BME280;45960;53.630;55.972;2023-01-28T00:21:10;101011.91;;;-11.08;69.08
60087;BME280;45960;53.630;55.972;2023-01-28T00:22:11;101008.34;;;-11.12;69.33
60087;BME280;45960;53.630;55.972;2023-01-28T00:23:12;101022.06;;;-11.13;69.26
60087;BME280;45960;53.630;55.972;2023-01-28T00:24:13;101012.59;;;-11.14;69.45
60087;BME280;45960;53.630;55.972;2023-01-28T00:25:15;101021.09;;;-11.16;69.48
60087;BME280;45960;53.630;55.972;2023-01-28T00:26:16;101010.78;;;-11.16;69.30
60087;BME280;45960;53.630;55.972;2023-01-28T00:27:19;101011.75;;;-11.13;69.21
60087;BME280;45960;53.630;55.972;2023-01-28T00:28:21;101019.44;;;-11.14;69.26
60087;BME280;45960;53.630;55.972;2023-01-28T00:29:22;101020.22;;;-11.17;69.19
60087;BME280;45960;53.630;55.972;2023-01-28T00:30:23;101016.59;;;-11.22;69.16
60087;BME280;45960;53.630;55.972;2023-01-28T00:31:25;101011.34;;;-11.25;69.25
60087;BME280;45960;53.630;55.972;2023-01-28T00:32:27;101011.44;;;-11.22;69.37
60087;BME280;45960;53.630;55.972;2023-01-28T00:33:28;101008.03;;;-11.21;69.36
60087;BME280;45960;53.630;55.972;2023-01-28T00:34:29;101008.88;;;-11.22;69.19
60087;BME280;45960;53.630;55.972;2023-01-28T00:35:30;101013.19;;;-11.21;69.22
60087;BME280;45960;53.630;55.972;2023-01-28T00:36:31;101009.81;;;-11.20;69.26
60087;BME280;45960;53.630;55.972;2023-01-28T00:37:33;101002.88;;;-11.21;69.12
60087;BME280;45960;53.630;55.972;2023-01-28T00:38:36;101009.81;;;-11.20;69.22
60087;BME280;45960;53.630;55.972;2023-01-28T00:39:37;101006.38;;;-11.19;69.02
60087;BME280;45960;53.630;55.972;2023-01-28T00:40:38;101004.63;;;-11.20;69.02
60087;BME280;45960;53.630;55.972;2023-01-28T00:41:39;101013.09;;;-11.24;69.10
60087;BME280;45960;53.630;55.972;2023-01-28T00:42:40;101007.94;;;-11.24;69.19
60087;BME280;45960;53.630;55.972;2023-01-28T00:43:42;101001.78;;;-11.28;69.12
60087;BME280;45960;53.630;55.972;2023-01-28T00:44:44;101000.81;;;-11.31;69.05
60087;BME280;45960;53.630;55.972;2023-01-28T00:45:45;101005.06;;;-11.32;69.14
60087;BME280;45960;53.630;55.972;2023-01-28T00:46:46;100998.06;;;-11.36;69.12
60087;BME280;45960;53.630;55.972;2023-01-28T00:47:48;101002.34;;;-11.36;69.21
60087;BME280;45960;53.630;55.972;2023-01-28T00:48:49;101002.25;;;-11.39;69.30
60087;BME280;45960;53.630;55.972;2023-01-28T00:49:50;101002.00;;;-11.45;69.38
60087;BME280;45960;53.630;55.972;2023-01-28T00:50:51;101000.28;;;-11.46;69.48
60087;BME280;45960;53.630;55.972;2023-01-28T00:51:52;101005.38;;;-11.48;69.60
60087;BME280;45960;53.630;55.972;2023-01-28T00:52:53;101019.03;;;-11.51;69.56
60087;BME280;45960;53.630;55.972;2023-01-28T00:53:54;101010.38;;;-11.53;69.64
60087;BME280;45960;53.630;55.972;2023-01-28T00:54:55;101012.13;;;-11.52;69.63
60087;BME280;45960;53.630;55.972;2023-01-28T00:55:57;100998.41;;;-11.51;69.62
60087;BME280;45960;53.630;55.972;2023-01-28T00:56:58;101006.84;;;-11.55;69.64
60087;BME280;45960;53.630;55.972;2023-01-28T00:57:59;101020.56;;;-11.56;69.58
60087;BME280;45960;53.630;55.972;2023-01-28T00:59:00;101008.56;;;-11.55;69.79
60087;BME280;45960;53.630;55.972;2023-01-28T01:00:01;101006.06;;;-11.54;69.51
60087;BME280;45960;53.630;55.972;2023-01-28T01:01:23;101012.97;;;-11.51;69.50
60087;BME280;45960;53.630;55.972;2023-01-28T01:02:25;101005.31;;;-11.50;69.49
60087;BME280;45960;53.630;55.972;2023-01-28T01:03:26;101007.69;;;-11.56;69.17
60087;BME280;45960;53.630;55.972;2023-01-28T01:04:27;101003.22;;;-11.60;69.47
60087;BME280;45960;53.630;55.972;2023-01-28T01:05:37;101005.69;;;-11.63;69.57
60087;BME280;45960;53.630;55.972;2023-01-28T01:06:39;101006.53;;;-11.64;69.56
60087;BME280;45960;53.630;55.972;2023-01-28T01:07:41;101008.28;;;-11.63;69.47
60087;BME280;45960;53.630;55.972;2023-01-28T01:08:42;101013.31;;;-11.66;69.54
60087;BME280;45960;53.630;55.972;2023-01-28T01:09:51;101004.75;;;-11.65;69.54
60087;BME280;45960;53.630;55.972;2023-01-28T01:10:52;101002.16;;;-11.66;69.46
60087;BME280;45960;53.630;55.972;2023-01-28T01:11:58;100996.13;;;-11.67;69.54
60087;BME280;45960;53.630;55.972;2023-01-28T01:12:59;101002.06;;;-11.68;69.59
60087;BME280;45960;53.630;55.972;2023-01-28T01:14:01;101003.78;;;-11.68;69.46
60087;BME280;45960;53.630;55.972;2023-01-28T01:15:05;101011.47;;;-11.70;69.61
60087;BME280;45960;53.630;55.972;2023-01-28T01:16:14;101002.81;;;-11.72;69.52
60087;BME280;45960;53.630;55.972;2023-01-28T01:17:19;100978.25;;;-11.86;69.67
60087;BME280;45960;53.630;55.972;2023-01-28T01:18:21;101002.81;;;-11.72;69.64
60087;BME280;45960;53.630;55.972;2023-01-28T01:19:22;101000.16;;;-11.74;69.43
60087;BME280;45960;53.630;55.972;2023-01-28T01:20:26;100986.19;;;-11.80;69.49
60087;BME280;45960;53.630;55.972;2023-01-28T01:21:28;101005.19;;;-11.77;69.61
60087;BME280;45960;53.630;55.972;2023-01-28T01:22:34;101004.31;;;-11.77;69.52
60087;BME280;45960;53.630;55.972;2023-01-28T01:23:36;101003.44;;;-11.78;69.51
60087;BME280;45960;53.630;55.972;2023-01-28T01:24:37;101004.22;;;-11.80;69.51
60087;BME280;45960;53.630;55.972;2023-01-28T01:25:38;100997.22;;;-11.84;69.55
60087;BME280;45960;53.630;55.972;2023-01-28T01:26:41;100999.69;;;-11.87;69.46
60087;BME280;45960;53.630;55.972;2023-01-28T01:27:43;101004.03;;;-11.86;69.43
60087;BME280;45960;53.630;55.972;2023-01-28T01:28:45;100999.75;;;-11.86;69.52
60087;BME280;45960;53.630;55.972;2023-01-28T01:29:47;100997.94;;;-11.88;69.75
60087;BME280;45960;53.630;55.972;2023-01-28T01:30:48;101003.09;;;-11.88;69.57
60087;BME280;45960;53.630;55.972;2023-01-28T01:31:49;101002.25;;;-11.87;69.55
60087;BME280;45960;53.630;55.972;2023-01-28T01:32:51;100994.31;;;-11.93;69.62
60087;BME280;45960;53.630;55.972;2023-01-28T01:33:52;101009.06;;;-11.89;69.60
60087;BME280;45960;53.630;55.972;2023-01-28T01:34:53;101003.06;;;-11.90;69.80
60087;BME280;45960;53.630;55.972;2023-01-28T01:35:55;101002.91;;;-11.93;69.87
60087;BME280;45960;53.630;55.972;2023-01-28T01:36:56;101003.69;;;-11.96;69.90
60087;BME280;45960;53.630;55.972;2023-01-28T01:37:57;100998.41;;;-11.99;69.79
60087;BME280;45960;53.630;55.972;2023-01-28T01:38:58;101001.81;;;-12.00;70.00
60087;BME280;45960;53.630;55.972;2023-01-28T01:40:00;100999.13;;;-12.03;70.03
60087;BME280;45960;53.630;55.972;2023-01-28T01:41:05;101007.81;;;-12.01;69.96
60087;BME280;45960;53.630;55.972;2023-01-28T01:42:10;100998.41;;;-11.99;69.80
60087;BME280;45960;53.630;55.972;2023-01-28T01:43:21;101006.22;;;-11.97;69.86
60087;BME280;45960;53.630;55.972;2023-01-28T01:44:59;101008.91;;;-11.94;69.66
60087;BME280;45960;53.630;55.972;2023-01-28T01:46:01;101004.50;;;-11.97;69.61
60087;BME280;45960;53.630;55.972;2023-01-28T01:47:02;101005.22;;;-12.01;69.55
60087;BME280;45960;53.630;55.972;2023-01-28T01:48:19;101003.34;;;-12.05;69.55
60087;BME280;45960;53.630;55.972;2023-01-28T01:49:24;100998.91;;;-12.09;69.60
60087;BME280;45960;53.630;55.972;2023-01-28T01:50:31;101007.72;;;-12.02;69.39
60087;BME280;45960;53.630;55.972;2023-01-28T01:51:34;101016.28;;;-12.03;69.47
60087;BME280;45960;53.630;55.972;2023-01-28T01:52:36;101012.00;;;-12.03;69.46
60087;BME280;45960;53.630;55.972;2023-01-28T01:53:40;101017.28;;;-12.00;69.20
60087;BME280;45960;53.630;55.972;2023-01-28T01:54:45;101013.75;;;-12.02;69.25
60087;BME280;45960;53.630;55.972;2023-01-28T01:55:49;101017.91;;;-12.05;69.46
60087;BME280;45960;53.630;55.972;2023-01-28T01:56:52;101015.41;;;-12.04;69.48
60087;BME280;45960;53.630;55.972;2023-01-28T01:57:55;101015.31;;;-12.07;69.39
60087;BME280;45960;53.630;55.972;2023-01-28T01:58:59;101013.63;;;-12.05;69.42
60087;BME280;45960;53.630;55.972;2023-01-28T02:00:03;101017.16;;;-12.03;69.32
60087;BME280;45960;53.630;55.972;2023-01-28T02:01:14;101013.63;;;-12.05;69.13
60087;BME280;45960;53.630;55.972;2023-01-28T02:02:16;101006.63;;;-12.09;69.30
60087;BME280;45960;53.630;55.972;2023-01-28T02:03:22;101007.63;;;-12.05;69.18
60087;BME280;45960;53.630;55.972;2023-01-28T02:04:47;101016.94;;;-12.09;69.42
60087;BME280;45960;53.630;55.972;2023-01-28T02:05:50;101012.53;;;-12.11;69.32
60087;BME280;45960;53.630;55.972;2023-01-28T02:06:51;101013.31;;;-12.14;69.45
60087;BME280;45960;53.630;55.972;2023-01-28T02:07:56;101006.41;;;-12.15;69.62
60087;BME280;45960;53.630;55.972;2023-01-28T02:10:24;101012.53;;;-12.11;69.17
60087;BME280;45960;53.630;55.972;2023-01-28T02:11:29;101010.81;;;-12.12;69.32
60087;BME280;45960;53.630;55.972;2023-01-28T02:12:41;101008.91;;;-12.17;69.19
60087;BME280;45960;53.630;55.972;2023-01-28T02:13:46;101006.03;;;-12.24;69.28
60087;BME280;45960;53.630;55.972;2023-01-28T02:14:53;101007.69;;;-12.26;69.47
60087;BME280;45960;53.630;55.972;2023-01-28T02:15:58;101011.94;;;-12.27;69.37
60087;BME280;45960;53.630;55.972;2023-01-28T02:17:00;101008.50;;;-12.27;69.49
60087;BME280;45960;53.630;55.972;2023-01-28T02:18:02;101012.97;;;-12.23;69.55
60087;BME280;45960;53.630;55.972;2023-01-28T02:19:06;101002.66;;;-12.23;69.43
60087;BME280;45960;53.630;55.972;2023-01-28T02:20:13;101005.34;;;-12.20;69.16
60087;BME280;45960;53.630;55.972;2023-01-28T02:23:01;101009.78;;;-12.16;69.03
60087;BME280;45960;53.630;55.972;2023-01-28T02:24:28;101020.19;;;-12.13;69.13
60087;BME280;45960;53.630;55.972;2023-01-28T02:29:27;101020.91;;;-11.95;68.68
60087;BME280;45960;53.630;55.972;2023-01-28T02:30:37;101026.28;;;-11.88;68.41
60087;BME280;45960;53.630;55.972;2023-01-28T02:33:01;101031.84;;;-11.76;68.19
60087;BME280;45960;53.630;55.972;2023-01-28T02:34:18;101016.63;;;-11.70;68.05
60087;BME280;45960;53.630;55.972;2023-01-28T02:35:51;101027.16;;;-11.64;67.81
60087;BME280;45960;53.630;55.972;2023-01-28T02:37:15;101029.84;;;-11.61;67.71
60087;BME280;45960;53.630;55.972;2023-01-28T02:38:18;101019.63;;;-11.58;67.66
60087;BME280;45960;53.630;55.972;2023-01-28T02:39:41;101020.63;;;-11.54;67.62
60087;BME280;45960;53.630;55.972;2023-01-28T02:40:45;101019.91;;;-11.50;67.43
60087;BME280;45960;53.630;55.972;2023-01-28T02:42:08;101022.63;;;-11.45;67.61
60087;BME280;45960;53.630;55.972;2023-01-28T02:43:13;101024.41;;;-11.44;67.40
60087;BME280;45960;53.630;55.972;2023-01-28T02:44:15;101019.38;;;-11.41;67.34
60087;BME280;45960;53.630;55.972;2023-01-28T02:45:23;101030.00;;;-11.32;67.45
60087;BME280;45960;53.630;55.972;2023-01-28T02:47:44;101027.72;;;-11.23;67.24
60087;BME280;45960;53.630;55.972;2023-01-28T02:48:58;101020.22;;;-11.17;67.02
60087;BME280;45960;53.630;55.972;2023-01-28T02:50:06;101029.09;;;-11.09;66.90
60087;BME280;45960;53.630;55.972;2023-01-28T02:51:32;101030.94;;;-11.05;66.67
60087;BME280;45960;53.630;55.972;2023-01-28T02:59:22;101044.44;;;-11.12;66.86
60087;BME280;45960;53.630;55.972;2023-01-28T03:00:52;101042.72;;;-11.13;66.83
60087;BME280;45960;53.630;55.972;2023-01-28T03:03:35;101037.66;;;-11.10;66.75
60087;BME280;45960;53.630;55.972;2023-01-28T03:06:06;101033.25;;;-11.12;66.66
60087;BME280;45960;53.630;55.972;2023-01-28T03:07:09;101032.59;;;-11.07;66.59
60087;BME280;45960;53.630;55.972;2023-01-28T03:08:12;101038.69;;;-11.05;66.53
60087;BME280;45960;53.630;55.972;2023-01-28T03:09:42;101043.84;;;-11.05;66.65
60087;BME280;45960;53.630;55.972;2023-01-28T03:10:45;101044.59;;;-11.09;66.52
60087;BME280;45960;53.630;55.972;2023-01-28T03:12:06;101044.59;;;-11.09;66.59
60087;BME280;45960;53.630;55.972;2023-01-28T03:13:27;101048.06;;;-11.07;66.63
60087;BME280;45960;53.630;55.972;2023-01-28T03:14:53;101043.94;;;-11.01;66.49
60087;BME280;45960;53.630;55.972;2023-01-28T03:16:14;101043.16;;;-11.00;66.42
60087;BME280;45960;53.630;55.972;2023-01-28T03:17:46;101042.47;;;-10.95;66.33
60087;BME280;45960;53.630;55.972;2023-01-28T03:19:08;101049.59;;;-10.88;66.15
60087;BME280;45960;53.630;55.972;2023-01-28T03:22:11;101040.88;;;-10.91;66.06
60087;BME280;45960;53.630;55.972;2023-01-28T03:23:46;101042.50;;;-10.93;66.10
60087;BME280;45960;53.630;55.972;2023-01-28T03:25:07;101038.19;;;-10.94;66.04
60087;BME280;45960;53.630;55.972;2023-01-28T03:26:33;101037.66;;;-11.10;66.14
60087;BME280;45960;53.630;55.972;2023-01-28T03:28:02;101045.59;;;-11.04;66.17
60087;BME280;45960;53.630;55.972;2023-01-28T03:29:25;101050.16;;;-10.96;66.08
60087;BME280;45960;53.630;55.972;2023-01-28T03:31:13;101046.03;;;-10.91;66.04
60087;BME280;45960;53.630;55.972;2023-01-28T03:32:35;101040.03;;;-10.90;65.90
60087;BME280;45960;53.630;55.972;2023-01-28T03:33:54;101044.22;;;-10.94;65.85
60087;BME280;45960;53.630;55.972;2023-01-28T03:35:17;101038.78;;;-11.01;65.73
60087;BME280;45960;53.630;55.972;2023-01-28T03:36:40;101044.69;;;-11.06;65.92
60087;BME280;45960;53.630;55.972;2023-01-28T03:38:11;101042.00;;;-11.09;66.06
60087;BME280;45960;53.630;55.972;2023-01-28T03:39:24;101035.59;;;-11.20;66.01
60087;BME280;45960;53.630;55.972;2023-01-28T03:40:26;101035.47;;;-11.23;66.36
60087;BME280;45960;53.630;55.972;2023-01-28T03:41:27;101044.16;;;-11.21;66.32
60087;BME280;45960;53.630;55.972;2023-01-28T03:42:31;101038.03;;;-11.23;66.57
60087;BME280;45960;53.630;55.972;2023-01-28T03:43:39;101043.34;;;-11.20;66.49
60087;BME280;45960;53.630;55.972;2023-01-28T03:44:41;101038.22;;;-11.18;66.64
60087;BME280;45960;53.630;55.972;2023-01-28T03:45:55;101040.19;;;-11.11;66.70
60087;BME280;45960;53.630;55.972;2023-01-28T03:46:57;101039.53;;;-11.06;66.48
60087;BME280;45960;53.630;55.972;2023-01-28T03:47:58;101034.66;;;-10.96;66.58
60087;BME280;45960;53.630;55.972;2023-01-28T03:48:59;101038.31;;;-10.90;66.44
60087;BME280;45960;53.630;55.972;2023-01-28T03:50:01;101038.59;;;-10.82;66.35
60087;BME280;45960;53.630;55.972;2023-01-28T03:51:07;101035.28;;;-10.78;66.10
60087;BME280;45960;53.630;55.972;2023-01-28T03:52:08;101044.03;;;-10.73;66.12
60087;BME280;45960;53.630;55.972;2023-01-28T03:53:09;101040.66;;;-10.72;66.00
60087;BME280;45960;53.630;55.972;2023-01-28T03:54:20;101040.66;;;-10.72;65.79
60087;BME280;45960;53.630;55.972;2023-01-28T03:55:21;101038.97;;;-10.70;65.84
60087;BME280;45960;53.630;55.972;2023-01-28T03:56:25;101035.50;;;-10.72;65.91
60087;BME280;45960;53.630;55.972;2023-01-28T03:57:28;101040.56;;;-10.75;65.76
60087;BME280;45960;53.630;55.972;2023-01-28T03:58:31;101043.94;;;-10.76;65.77
60087;BME280;45960;53.630;55.972;2023-01-28T03:59:52;101037.75;;;-10.81;65.94
60087;BME280;45960;53.630;55.972;2023-01-28T04:00:54;101048.03;;;-10.83;65.90
60087;BME280;45960;53.630;55.972;2023-01-28T04:01:55;101038.59;;;-10.82;65.85
60087;BME280;45960;53.630;55.972;2023-01-28T04:02:57;101036.84;;;-10.83;65.80
60087;BME280;45960;53.630;55.972;2023-01-28T04:03:59;101038.69;;;-10.79;65.84
60087;BME280;45960;53.630;55.972;2023-01-28T04:05:01;101043.75;;;-10.82;65.73
60087;BME280;45960;53.630;55.972;2023-01-28T04:06:15;101039.53;;;-10.80;65.92
60087;BME280;45960;53.630;55.972;2023-01-28T04:07:39;101038.88;;;-10.73;65.95
60087;BME280;45960;53.630;55.972;2023-01-28T04:08:59;101042.50;;;-10.68;65.67
60087;BME280;45960;53.630;55.972;2023-01-28T04:10:14;101046.72;;;-10.70;65.48
60087;BME280;45960;53.630;55.972;2023-01-28T04:11:30;101042.09;;;-10.80;65.62
60087;BME280;45960;53.630;55.972;2023-01-28T04:12:34;101045.28;;;-10.87;65.42
60087;BME280;45960;53.630;55.972;2023-01-28T04:13:39;101040.59;;;-10.99;65.64
60087;BME280;45960;53.630;55.972;2023-01-28T04:14:41;101044.78;;;-11.02;65.90
60087;BME280;45960;53.630;55.972;2023-01-28T04:15:49;101046.44;;;-11.05;65.90
60087;BME280;45960;53.630;55.972;2023-01-28T04:16:51;101049.19;;;-11.00;65.72
60087;BME280;45960;53.630;55.972;2023-01-28T04:17:54;101041.94;;;-11.10;65.84
60087;BME280;45960;53.630;55.972;2023-01-28T04:19:00;101046.22;;;-11.11;66.16
60087;BME280;45960;53.630;55.972;2023-01-28T04:20:01;101043.75;;;-11.08;66.02
60087;BME280;45960;53.630;55.972;2023-01-28T04:21:04;101047.94;;;-11.11;66.21
60087;BME280;45960;53.630;55.972;2023-01-28T04:22:07;101047.66;;;-11.19;66.27
60087;BME280;45960;53.630;55.972;2023-01-28T04:23:10;101051.06;;;-11.20;66.34
60087;BME280;45960;53.630;55.972;2023-01-28T04:24:11;101046.63;;;-11.24;66.53
60087;BME280;45960;53.630;55.972;2023-01-28T04:25:13;101049.31;;;-11.21;66.41
60087;BME280;45960;53.630;55.972;2023-01-28T04:26:14;101041.63;;;-11.19;66.42
60087;BME280;45960;53.630;55.972;2023-01-28T04:27:15;101038.84;;;-11.25;66.38
60087;BME280;45960;53.630;55.972;2023-01-28T04:28:16;101040.63;;;-11.23;66.25
60087;BME280;45960;53.630;55.972;2023-01-28T04:29:18;101045.69;;;-11.26;66.60
60087;BME280;45960;53.630;55.972;2023-01-28T04:30:19;101037.03;;;-11.28;66.45
60087;BME280;45960;53.630;55.972;2023-01-28T04:31:58;101037.94;;;-11.26;66.45
60087;BME280;45960;53.630;55.972;2023-01-28T04:33:13;101044.81;;;-11.27;66.50
60087;BME280;45960;53.630;55.972;2023-01-28T04:34:47;101043.44;;;-11.17;66.30
60087;BME280;45960;53.630;55.972;2023-01-28T04:36:20;101051.59;;;-11.05;66.08
60087;BME280;45960;53.630;55.972;2023-01-28T04:37:56;101047.88;;;-11.13;65.80
60087;BME280;45960;53.630;55.972;2023-01-28T04:39:30;101044.16;;;-11.21;65.88
60087;BME280;45960;53.630;55.972;2023-01-28T04:40:52;101046.72;;;-11.21;65.87
60087;BME280;45960;53.630;55.972;2023-01-28T04:42:02;101044.66;;;-11.31;66.06
60087;BME280;45960;53.630;55.972;2023-01-28T04:43:23;101045.25;;;-11.38;66.35
60087;BME280;45960;53.630;55.972;2023-01-28T04:44:27;101047.00;;;-11.37;66.59
60087;BME280;45960;53.630;55.972;2023-01-28T04:45:50;101046.69;;;-11.46;66.67
60087;BME280;45960;53.630;55.972;2023-01-28T04:47:06;101044.72;;;-11.54;66.75
60087;BME280;45960;53.630;55.972;2023-01-28T04:48:19;101045.81;;;-11.47;66.71
60087;BME280;45960;53.630;55.972;2023-01-28T04:49:40;101051.72;;;-11.50;66.89
60087;BME280;45960;53.630;55.972;2023-01-28T04:50:57;101046.78;;;-11.43;66.92
60087;BME280;45960;53.630;55.972;2023-01-28T04:52:22;101046.03;;;-11.41;67.10
60087;BME280;45960;53.630;55.972;2023-01-28T04:53:37;101055.56;;;-11.38;67.09
60087;BME280;45960;53.630;55.972;2023-01-28T04:54:53;101050.41;;;-11.38;66.95
60087;BME280;45960;53.630;55.972;2023-01-28T04:55:56;101057.41;;;-11.34;67.03
60087;BME280;45960;53.630;55.972;2023-01-28T04:56:57;101057.56;;;-11.31;67.09
60087;BME280;45960;53.630;55.972;2023-01-28T04:57:58;101060.28;;;-11.27;67.07
60087;BME280;45960;53.630;55.972;2023-01-28T04:59:00;101052.72;;;-11.22;67.16
60087;BME280;45960;53.630;55.972;2023-01-28T05:00:03;101051.06;;;-11.20;67.13
60087;BME280;45960;53.630;55.972;2023-01-28T05:01:05;101053.78;;;-11.15;67.12
60087;BME280;45960;53.630;55.972;2023-01-28T05:02:06;101062.47;;;-11.13;67.22
60087;BME280;45960;53.630;55.972;2023-01-28T05:03:07;101058.28;;;-11.10;67.19
60087;BME280;45960;53.630;55.972;2023-01-28T05:04:09;101063.78;;;-11.00;67.09
60087;BME280;45960;53.630;55.972;2023-01-28T05:05:12;101060.56;;;-10.93;66.99
60087;BME280;45960;53.630;55.972;2023-01-28T05:06:32;101058.25;;;-10.86;66.70
60087;BME280;45960;53.630;55.972;2023-01-28T05:07:41;101061.25;;;-10.99;66.85
60087;BME280;45960;53.630;55.972;2023-01-28T05:08:42;101051.78;;;-10.98;67.08
60087;BME280;45960;53.630;55.972;2023-01-28T05:09:47;101056.97;;;-10.98;67.23
60087;BME280;45960;53.630;55.972;2023-01-28T05:10:48;101064.59;;;-11.01;67.36
60087;BME280;45960;53.630;55.972;2023-01-28T05:11:49;101062.13;;;-10.98;67.31
60087;BME280;45960;53.630;55.972;2023-01-28T05:12:50;101075.19;;;-10.94;67.40
60087;BME280;45960;53.630;55.972;2023-01-28T05:13:53;101065.75;;;-10.93;67.50
60087;BME280;45960;53.630;55.972;2023-01-28T05:14:54;101059.13;;;-10.85;67.57
60087;BME280;45960;53.630;55.972;2023-01-28T05:15:56;101050.88;;;-10.75;67.46
60087;BME280;45960;53.630;55.972;2023-01-28T05:16:57;101047.75;;;-10.65;67.26
60087;BME280;45960;53.630;55.972;2023-01-28T05:17:58;101049.63;;;-10.61;67.08
60087;BME280;45960;53.630;55.972;2023-01-28T05:19:02;101051.28;;;-10.63;67.28
60087;BME280;45960;53.630;55.972;2023-01-28T05:20:10;101044.47;;;-10.61;67.32
60087;BME280;45960;53.630;55.972;2023-01-28T05:21:13;101048.19;;;-10.52;67.18
60087;BME280;45960;53.630;55.972;2023-01-28T05:22:14;101053.63;;;-10.43;66.92
60087;BME280;45960;53.630;55.972;2023-01-28T05:23:18;101048.66;;;-10.37;66.73
60087;BME280;45960;53.630;55.972;2023-01-28T05:24:28;101053.53;;;-10.46;67.00
60087;BME280;45960;53.630;55.972;2023-01-28T05:25:29;101058.59;;;-10.49;67.10
60087;BME280;45960;53.630;55.972;2023-01-28T05:26:31;101060.25;;;-10.51;67.17
60087;BME280;45960;53.630;55.972;2023-01-28T05:27:32;101061.19;;;-10.49;67.39
60087;BME280;45960;53.630;55.972;2023-01-28T05:28:33;101063.88;;;-10.46;67.35
60087;BME280;45960;53.630;55.972;2023-01-28T05:29:35;101061.31;;;-10.45;67.30
60087;BME280;45960;53.630;55.972;2023-01-28T05:30:37;101064.91;;;-10.41;67.40
60087;BME280;45960;53.630;55.972;2023-01-28T05:31:38;101059.06;;;-10.34;67.31
60087;BME280;45960;53.630;55.972;2023-01-28T05:32:39;101071.38;;;-10.25;67.08
60087;BME280;45960;53.630;55.972;2023-01-28T05:33:41;101065.53;;;-10.20;67.20
60087;BME280;45960;53.630;55.972;2023-01-28T05:34:45;101070.06;;;-10.13;67.04
60087;BME280;45960;53.630;55.972;2023-01-28T05:35:48;101062.41;;;-10.09;66.85
60087;BME280;45960;53.630;55.972;2023-01-28T05:36:50;101060.50;;;-10.15;66.99
60087;BME280;45960;53.630;55.972;2023-01-28T05:38:06;101065.34;;;-10.26;67.16
60087;BME280;45960;53.630;55.972;2023-01-28T05:39:07;101060.75;;;-10.36;67.53
60087;BME280;45960;53.630;55.972;2023-01-28T05:40:09;101063.19;;;-10.41;67.78
60087;BME280;45960;53.630;55.972;2023-01-28T05:41:11;101062.31;;;-10.41;68.21
60087;BME280;45960;53.630;55.972;2023-01-28T05:42:13;101070.28;;;-10.33;68.14
60087;BME280;45960;53.630;55.972;2023-01-28T05:43:20;101068.94;;;-10.21;68.11
60087;BME280;45960;53.630;55.972;2023-01-28T05:44:42;101071.91;;;-10.08;67.97
60087;BME280;45960;53.630;55.972;2023-01-28T05:45:49;101073.94;;;-9.98;67.79
60087;BME280;45960;53.630;55.972;2023-01-28T05:47:02;101079.38;;;-9.89;67.43
60087;BME280;45960;53.630;55.972;2023-01-28T05:48:25;101078.50;;;-9.91;67.20
60087;BME280;45960;53.630;55.972;2023-01-28T05:49:49;101076.78;;;-9.91;67.38
60087;BME280;45960;53.630;55.972;2023-01-28T05:51:05;101063.97;;;-9.86;67.24
60087;BME280;45960;53.630;55.972;2023-01-28T05:52:11;101071.09;;;-9.79;67.24
60087;BME280;45960;53.630;55.972;2023-01-28T05:53:13;101062.50;;;-9.78;67.07
60087;BME280;45960;53.630;55.972;2023-01-28T05:54:17;101064.25;;;-9.77;67.13
60087;BME280;45960;53.630;55.972;2023-01-28T05:55:18;101066.00;;;-9.76;67.29
60087;BME280;45960;53.630;55.972;2023-01-28T05:56:19;101071.34;;;-9.70;67.44
60087;BME280;45960;53.630;55.972;2023-01-28T05:57:20;101061.94;;;-9.68;67.53
60087;BME280;45960;53.630;55.972;2023-01-28T05:58:22;101063.16;;;-9.85;67.45
60087;BME280;45960;53.630;55.972;2023-01-28T05:59:23;101066.28;;;-9.95;68.29
60087;BME280;45960;53.630;55.972;2023-01-28T06:00:26;101065.16;;;-10.03;68.51
60087;BME280;45960;53.630;55.972;2023-01-28T06:01:28;101068.09;;;-10.20;68.86
60087;BME280;45960;53.630;55.972;2023-01-28T06:02:29;101069.69;;;-10.25;69.47